FTYKL LFBT-LFPB
Flight info
| Callsign | FTYKL |
|---|---|
| Flight time | 1h 3m |
| Altitude | 28000 |
| Route | USAKU DCT AGN/N0495F340 DCT POKET DCT POI/N0505F300 DCT PEPAX UT182 KEPER |
| Aircraft | C750/M-SBDE3FGHRWXY/S |
Departure
| Time | 2026-04-27 17:43 |
|---|---|
| Airport | Tarbes-Lourdes-Pyrénées Airport (LFBT) |
Arrival
| Time | 2026-04-27 18:46 |
|---|---|
| Airport | Paris-Le Bourget International Airport (LFPB) |
| Time | Latitude | Longitude | Altitude | Speed | Heading |
|---|---|---|---|---|---|
| 2026-04-27 17:30 | 43.18514 | 0.00090 | 1190 ft | 0 kts | 163° |
| 2026-04-27 17:39 | 43.18504 | 0.00088 | 1188 ft | 5 kts | 189° |
| 2026-04-27 17:39 | 43.18484 | 0.00038 | 1192 ft | 9 kts | 277° |
| 2026-04-27 17:40 | 43.18504 | -0.00089 | 1193 ft | 15 kts | 284° |
| 2026-04-27 17:40 | 43.18523 | -0.00172 | 1194 ft | 6 kts | 289° |
| 2026-04-27 17:40 | 43.18536 | -0.00226 | 1194 ft | 8 kts | 288° |
| 2026-04-27 17:40 | 43.18588 | -0.00265 | 1192 ft | 13 kts | 13° |
| 2026-04-27 17:41 | 43.18690 | -0.00215 | 1189 ft | 18 kts | 20° |
| 2026-04-27 17:41 | 43.18815 | -0.00153 | 1186 ft | 21 kts | 20° |
| 2026-04-27 17:41 | 43.18960 | -0.00079 | 1180 ft | 23 kts | 20° |
| 2026-04-27 17:41 | 43.19089 | 0.00000 | 1176 ft | 12 kts | 342° |
| 2026-04-27 17:42 | 43.19093 | -0.00013 | 1174 ft | 0 kts | 231° |
| 2026-04-27 17:42 | 43.19087 | -0.00015 | 1175 ft | 0 kts | 203° |
| 2026-04-27 17:42 | 43.19005 | -0.00057 | 1179 ft | 49 kts | 200° |
| 2026-04-27 17:42 | 43.18317 | -0.00402 | 1248 ft | 140 kts | 198° |
| 2026-04-27 17:43 | 43.17336 | -0.00870 | 1722 ft | 165 kts | 198° |
| 2026-04-27 17:43 | 43.16176 | -0.01426 | 2346 ft | 183 kts | 200° |
| 2026-04-27 17:43 | 43.14974 | -0.02066 | 3170 ft | 190 kts | 201° |
| 2026-04-27 17:43 | 43.13731 | -0.02758 | 4013 ft | 194 kts | 201° |
| 2026-04-27 17:44 | 43.12450 | -0.03365 | 4913 ft | 197 kts | 196° |
| 2026-04-27 17:44 | 43.11107 | -0.03366 | 5714 ft | 197 kts | 163° |
| 2026-04-27 17:44 | 43.09906 | -0.02361 | 6235 ft | 216 kts | 132° |
| 2026-04-27 17:44 | 43.09302 | -0.00461 | 6933 ft | 221 kts | 97° |
| 2026-04-27 17:45 | 43.09390 | 0.01600 | 7952 ft | 215 kts | 82° |
| 2026-04-27 17:45 | 43.09592 | 0.03629 | 8973 ft | 218 kts | 82° |
| 2026-04-27 17:45 | 43.09779 | 0.05696 | 9992 ft | 221 kts | 83° |
| 2026-04-27 17:45 | 43.09967 | 0.07873 | 10481 ft | 246 kts | 83° |
| 2026-04-27 17:46 | 43.10182 | 0.10316 | 10392 ft | 263 kts | 83° |
| 2026-04-27 17:46 | 43.10416 | 0.12804 | 10271 ft | 263 kts | 80° |
| 2026-04-27 17:46 | 43.11048 | 0.15147 | 10103 ft | 262 kts | 63° |
| 2026-04-27 17:46 | 43.11923 | 0.17406 | 10129 ft | 276 kts | 61° |
| 2026-04-27 17:47 | 43.12798 | 0.19719 | 10122 ft | 269 kts | 63° |
| 2026-04-27 17:47 | 43.13346 | 0.21235 | 10115 ft | 266 kts | 63° |
| 2026-04-27 17:47 | 43.14488 | 0.24215 | 10076 ft | 272 kts | 53° |
| 2026-04-27 17:47 | 43.16032 | 0.25933 | 10284 ft | 297 kts | 29° |
| 2026-04-27 17:48 | 43.17889 | 0.27290 | 10725 ft | 318 kts | 26° |
| 2026-04-27 17:48 | 43.19926 | 0.28761 | 10964 ft | 343 kts | 28° |
| 2026-04-27 17:48 | 43.22017 | 0.30529 | 11392 ft | 358 kts | 32° |
| 2026-04-27 17:48 | 43.24109 | 0.32404 | 12218 ft | 361 kts | 31° |
| 2026-04-27 17:49 | 43.26274 | 0.34216 | 12901 ft | 367 kts | 30° |
| 2026-04-27 17:49 | 43.28487 | 0.36007 | 13623 ft | 371 kts | 30° |
| 2026-04-27 17:49 | 43.30708 | 0.37869 | 14291 ft | 376 kts | 31° |
| 2026-04-27 17:49 | 43.32937 | 0.39778 | 14976 ft | 380 kts | 31° |
| 2026-04-27 17:50 | 43.35204 | 0.41691 | 15619 ft | 384 kts | 30° |
| 2026-04-27 17:50 | 43.39813 | 0.45553 | 16953 ft | 393 kts | 30° |
| 2026-04-27 17:50 | 43.42152 | 0.47535 | 17635 ft | 398 kts | 30° |
| 2026-04-27 17:51 | 43.44525 | 0.49542 | 18311 ft | 403 kts | 30° |
| 2026-04-27 17:51 | 43.46933 | 0.51574 | 18926 ft | 408 kts | 30° |
| 2026-04-27 17:51 | 43.49366 | 0.53632 | 19589 ft | 412 kts | 30° |
| 2026-04-27 17:51 | 43.51823 | 0.55714 | 20231 ft | 417 kts | 30° |
| 2026-04-27 17:52 | 43.54307 | 0.57821 | 20914 ft | 422 kts | 30° |
| 2026-04-27 17:52 | 43.56814 | 0.59949 | 21578 ft | 426 kts | 30° |
| 2026-04-27 17:52 | 43.59357 | 0.62108 | 22226 ft | 431 kts | 30° |
| 2026-04-27 17:52 | 43.61052 | 0.63549 | 22665 ft | 434 kts | 31° |
| 2026-04-27 17:53 | 43.64515 | 0.66497 | 23532 ft | 440 kts | 30° |
| 2026-04-27 17:53 | 43.67134 | 0.68729 | 24091 ft | 444 kts | 30° |
| 2026-04-27 17:53 | 43.69774 | 0.70981 | 24657 ft | 447 kts | 30° |
| 2026-04-27 17:53 | 43.72435 | 0.73253 | 25204 ft | 450 kts | 30° |
| 2026-04-27 17:54 | 43.75111 | 0.75541 | 25751 ft | 454 kts | 30° |
| 2026-04-27 17:54 | 43.77807 | 0.77848 | 26309 ft | 456 kts | 30° |
| 2026-04-27 17:54 | 43.80515 | 0.80168 | 26866 ft | 460 kts | 30° |
| 2026-04-27 17:54 | 43.83247 | 0.82499 | 27389 ft | 463 kts | 30° |
| 2026-04-27 17:55 | 43.86166 | 0.84412 | 27807 ft | 466 kts | 19° |
| 2026-04-27 17:55 | 43.89300 | 0.85648 | 28044 ft | 474 kts | 9° |
| 2026-04-27 17:55 | 43.92567 | 0.86132 | 28047 ft | 485 kts | 359° |
| 2026-04-27 17:55 | 43.95962 | 0.85838 | 28050 ft | 495 kts | 350° |
| 2026-04-27 17:56 | 43.99407 | 0.85122 | 28065 ft | 506 kts | 349° |
| 2026-04-27 17:56 | 44.02926 | 0.84392 | 28074 ft | 516 kts | 349° |
| 2026-04-27 17:56 | 44.10065 | 0.82955 | 28057 ft | 521 kts | 349° |
| 2026-04-27 17:57 | 44.17240 | 0.81467 | 28056 ft | 522 kts | 349° |
| 2026-04-27 17:57 | 44.24436 | 0.79996 | 28053 ft | 522 kts | 348° |
| 2026-04-27 17:58 | 44.31622 | 0.78508 | 28056 ft | 522 kts | 348° |
| 2026-04-27 17:58 | 44.38808 | 0.77027 | 28056 ft | 522 kts | 349° |
| 2026-04-27 17:59 | 44.46008 | 0.75533 | 28061 ft | 524 kts | 348° |
| 2026-04-27 17:59 | 44.53222 | 0.74035 | 28059 ft | 525 kts | 348° |
| 2026-04-27 18:00 | 44.60444 | 0.72531 | 28055 ft | 525 kts | 348° |
| 2026-04-27 18:00 | 44.67683 | 0.71019 | 28059 ft | 525 kts | 348° |
| 2026-04-27 18:01 | 44.74908 | 0.69507 | 28046 ft | 525 kts | 348° |
| 2026-04-27 18:01 | 44.82130 | 0.67992 | 28051 ft | 525 kts | 348° |
| 2026-04-27 18:02 | 44.89357 | 0.66471 | 28052 ft | 525 kts | 348° |
| 2026-04-27 18:02 | 44.96490 | 0.64967 | 28058 ft | 525 kts | 348° |
| 2026-04-27 18:03 | 45.03721 | 0.63438 | 28057 ft | 525 kts | 348° |
| 2026-04-27 18:03 | 45.10943 | 0.61907 | 28056 ft | 525 kts | 348° |
| 2026-04-27 18:04 | 45.18175 | 0.60369 | 28055 ft | 525 kts | 348° |
| 2026-04-27 18:04 | 45.25398 | 0.58830 | 28053 ft | 525 kts | 348° |
| 2026-04-27 18:05 | 45.32628 | 0.57285 | 28062 ft | 525 kts | 348° |
| 2026-04-27 18:05 | 45.39849 | 0.55738 | 28067 ft | 525 kts | 348° |
| 2026-04-27 18:06 | 45.45847 | 0.54450 | 28067 ft | 524 kts | 348° |
| 2026-04-27 18:06 | 45.53056 | 0.52898 | 28077 ft | 524 kts | 348° |
| 2026-04-27 18:07 | 45.60270 | 0.51342 | 28079 ft | 524 kts | 348° |
| 2026-04-27 18:07 | 45.67480 | 0.49781 | 28082 ft | 524 kts | 348° |
| 2026-04-27 18:08 | 45.74689 | 0.48218 | 28083 ft | 524 kts | 348° |
| 2026-04-27 18:08 | 45.81902 | 0.46649 | 28082 ft | 524 kts | 347° |
| 2026-04-27 18:09 | 45.89120 | 0.45075 | 28084 ft | 524 kts | 347° |
| 2026-04-27 18:09 | 45.96325 | 0.43499 | 28086 ft | 524 kts | 347° |
| 2026-04-27 18:10 | 46.03546 | 0.41917 | 28089 ft | 525 kts | 347° |
| 2026-04-27 18:10 | 46.10770 | 0.40328 | 28093 ft | 525 kts | 347° |
| 2026-04-27 18:11 | 46.17999 | 0.38735 | 28105 ft | 527 kts | 346° |
| 2026-04-27 18:11 | 46.25259 | 0.37131 | 28099 ft | 528 kts | 346° |
| 2026-04-27 18:12 | 46.32519 | 0.35522 | 28097 ft | 528 kts | 346° |
| 2026-04-27 18:12 | 46.39779 | 0.33909 | 28102 ft | 529 kts | 346° |
| 2026-04-27 18:13 | 46.47059 | 0.32287 | 28108 ft | 529 kts | 346° |
| 2026-04-27 18:13 | 46.54346 | 0.30706 | 28098 ft | 530 kts | 348° |
| 2026-04-27 18:14 | 46.61800 | 0.31003 | 28091 ft | 543 kts | 4° |
| 2026-04-27 18:14 | 46.69215 | 0.33236 | 28102 ft | 544 kts | 7° |
| 2026-04-27 18:15 | 46.76627 | 0.35484 | 28107 ft | 544 kts | 7° |
| 2026-04-27 18:15 | 46.84038 | 0.37788 | 28113 ft | 545 kts | 7° |
| 2026-04-27 18:16 | 46.91452 | 0.40065 | 28116 ft | 545 kts | 7° |
| 2026-04-27 18:16 | 46.98857 | 0.42368 | 28114 ft | 543 kts | 7° |
| 2026-04-27 18:17 | 47.06257 | 0.44361 | 28100 ft | 536 kts | 0° |
| 2026-04-27 18:17 | 47.13604 | 0.43930 | 28102 ft | 524 kts | 345° |
| 2026-04-27 18:18 | 47.20795 | 0.42162 | 28129 ft | 525 kts | 345° |
| 2026-04-27 18:18 | 47.28021 | 0.40422 | 28128 ft | 527 kts | 345° |
| 2026-04-27 18:19 | 47.35262 | 0.38630 | 28130 ft | 528 kts | 345° |
| 2026-04-27 18:19 | 47.42523 | 0.36864 | 28129 ft | 528 kts | 345° |
| 2026-04-27 18:20 | 47.49721 | 0.35082 | 28132 ft | 527 kts | 345° |
| 2026-04-27 18:20 | 47.56959 | 0.33290 | 28134 ft | 527 kts | 345° |
| 2026-04-27 18:21 | 47.60537 | 0.32404 | 27874 ft | 509 kts | 346° |
| 2026-04-27 18:21 | 47.63916 | 0.31578 | 27214 ft | 476 kts | 346° |
| 2026-04-27 18:21 | 47.67085 | 0.30790 | 26623 ft | 448 kts | 345° |
| 2026-04-27 18:21 | 47.70109 | 0.30020 | 26049 ft | 436 kts | 345° |
| 2026-04-27 18:22 | 47.73088 | 0.29269 | 25486 ft | 435 kts | 346° |
| 2026-04-27 18:22 | 47.76122 | 0.28943 | 24906 ft | 438 kts | 356° |
| 2026-04-27 18:22 | 47.79152 | 0.29336 | 24333 ft | 439 kts | 6° |
| 2026-04-27 18:22 | 47.82095 | 0.30435 | 23777 ft | 426 kts | 16° |
| 2026-04-27 18:23 | 47.84735 | 0.32074 | 23858 ft | 404 kts | 24° |
| 2026-04-27 18:23 | 47.87177 | 0.34247 | 23829 ft | 416 kts | 32° |
| 2026-04-27 18:23 | 47.89527 | 0.36724 | 23812 ft | 413 kts | 33° |
| 2026-04-27 18:23 | 47.91832 | 0.39126 | 22927 ft | 400 kts | 33° |
| 2026-04-27 18:24 | 47.94129 | 0.41514 | 21647 ft | 402 kts | 33° |
| 2026-04-27 18:24 | 47.96402 | 0.43903 | 21284 ft | 397 kts | 33° |
| 2026-04-27 18:24 | 47.98653 | 0.46274 | 20991 ft | 395 kts | 33° |
| 2026-04-27 18:24 | 48.00894 | 0.48627 | 20698 ft | 392 kts | 33° |
| 2026-04-27 18:25 | 48.03113 | 0.50956 | 20426 ft | 388 kts | 33° |
| 2026-04-27 18:25 | 48.05316 | 0.53275 | 20143 ft | 386 kts | 33° |
| 2026-04-27 18:25 | 48.07509 | 0.55589 | 19862 ft | 385 kts | 33° |
| 2026-04-27 18:25 | 48.09691 | 0.57892 | 19592 ft | 382 kts | 33° |
| 2026-04-27 18:26 | 48.11858 | 0.60179 | 19316 ft | 380 kts | 33° |
| 2026-04-27 18:26 | 48.14015 | 0.62460 | 19046 ft | 379 kts | 33° |
| 2026-04-27 18:26 | 48.16161 | 0.64732 | 18779 ft | 377 kts | 33° |
| 2026-04-27 18:26 | 48.18293 | 0.66990 | 18517 ft | 375 kts | 33° |
| 2026-04-27 18:27 | 48.20419 | 0.69245 | 18229 ft | 373 kts | 33° |
| 2026-04-27 18:27 | 48.22444 | 0.71400 | 17872 ft | 343 kts | 33° |
| 2026-04-27 18:27 | 48.24337 | 0.73412 | 17359 ft | 342 kts | 33° |
| 2026-04-27 18:27 | 48.26287 | 0.75477 | 16224 ft | 342 kts | 33° |
| 2026-04-27 18:28 | 48.28297 | 0.77615 | 15274 ft | 354 kts | 34° |
| 2026-04-27 18:28 | 48.30256 | 0.79713 | 15285 ft | 348 kts | 34° |
| 2026-04-27 18:28 | 48.32223 | 0.81811 | 15298 ft | 352 kts | 34° |
| 2026-04-27 18:28 | 48.34187 | 0.84044 | 15083 ft | 356 kts | 41° |
| 2026-04-27 18:29 | 48.35608 | 0.87061 | 14765 ft | 354 kts | 61° |
| 2026-04-27 18:29 | 48.36740 | 0.90366 | 14476 ft | 354 kts | 62° |
| 2026-04-27 18:29 | 48.37857 | 0.93645 | 14151 ft | 350 kts | 62° |
| 2026-04-27 18:29 | 48.38992 | 0.96897 | 13800 ft | 351 kts | 61° |
| 2026-04-27 18:30 | 48.40120 | 1.00122 | 13458 ft | 346 kts | 62° |
| 2026-04-27 18:30 | 48.41229 | 1.03335 | 13126 ft | 345 kts | 62° |
| 2026-04-27 18:30 | 48.42329 | 1.06537 | 12801 ft | 343 kts | 61° |
| 2026-04-27 18:30 | 48.43422 | 1.09713 | 12482 ft | 341 kts | 61° |
| 2026-04-27 18:31 | 48.44517 | 1.12890 | 12161 ft | 341 kts | 61° |
| 2026-04-27 18:31 | 48.45603 | 1.16048 | 11840 ft | 338 kts | 62° |
| 2026-04-27 18:31 | 48.46679 | 1.19186 | 11521 ft | 336 kts | 61° |
| 2026-04-27 18:31 | 48.47749 | 1.22308 | 11208 ft | 334 kts | 61° |
| 2026-04-27 18:32 | 48.48811 | 1.25410 | 10892 ft | 332 kts | 61° |
| 2026-04-27 18:32 | 48.49846 | 1.28440 | 10583 ft | 313 kts | 61° |
| 2026-04-27 18:32 | 48.50809 | 1.31261 | 10295 ft | 296 kts | 61° |
| 2026-04-27 18:32 | 48.51737 | 1.33978 | 10151 ft | 285 kts | 61° |
| 2026-04-27 18:33 | 48.52658 | 1.36650 | 10159 ft | 292 kts | 61° |
| 2026-04-27 18:33 | 48.53596 | 1.39372 | 10112 ft | 293 kts | 61° |
| 2026-04-27 18:33 | 48.54532 | 1.42104 | 9915 ft | 294 kts | 61° |
| 2026-04-27 18:33 | 48.55470 | 1.44846 | 9664 ft | 293 kts | 61° |
| 2026-04-27 18:34 | 48.56403 | 1.47573 | 9413 ft | 291 kts | 61° |
| 2026-04-27 18:34 | 48.57467 | 1.50120 | 9100 ft | 286 kts | 45° |
| 2026-04-27 18:34 | 48.59064 | 1.51769 | 9146 ft | 278 kts | 26° |
| 2026-04-27 18:34 | 48.60820 | 1.53077 | 9171 ft | 281 kts | 24° |
| 2026-04-27 18:35 | 48.62585 | 1.54353 | 9175 ft | 282 kts | 24° |
| 2026-04-27 18:35 | 48.64349 | 1.55651 | 9176 ft | 283 kts | 25° |
| 2026-04-27 18:35 | 48.66117 | 1.56966 | 9172 ft | 283 kts | 24° |
| 2026-04-27 18:35 | 48.67880 | 1.58274 | 9173 ft | 282 kts | 24° |
| 2026-04-27 18:36 | 48.69649 | 1.59579 | 9107 ft | 283 kts | 24° |
| 2026-04-27 18:36 | 48.71419 | 1.60890 | 8901 ft | 283 kts | 25° |
| 2026-04-27 18:36 | 48.73161 | 1.62182 | 8673 ft | 281 kts | 24° |
| 2026-04-27 18:36 | 48.74780 | 1.63868 | 8351 ft | 283 kts | 45° |
| 2026-04-27 18:37 | 48.75791 | 1.66407 | 8135 ft | 281 kts | 64° |
| 2026-04-27 18:37 | 48.76531 | 1.69103 | 7949 ft | 281 kts | 66° |
| 2026-04-27 18:37 | 48.77277 | 1.71876 | 7756 ft | 280 kts | 66° |
| 2026-04-27 18:37 | 48.78027 | 1.74591 | 7561 ft | 279 kts | 65° |
| 2026-04-27 18:38 | 48.78510 | 1.77384 | 7252 ft | 283 kts | 86° |
| 2026-04-27 18:38 | 48.78653 | 1.80264 | 6950 ft | 277 kts | 72° |
| 2026-04-27 18:38 | 48.79571 | 1.82790 | 6691 ft | 271 kts | 53° |
| 2026-04-27 18:38 | 48.80635 | 1.85129 | 6518 ft | 269 kts | 56° |
| 2026-04-27 18:39 | 48.81493 | 1.87671 | 6309 ft | 271 kts | 66° |
| 2026-04-27 18:39 | 48.82165 | 1.90338 | 6121 ft | 270 kts | 68° |
| 2026-04-27 18:39 | 48.82871 | 1.93006 | 5937 ft | 268 kts | 65° |
| 2026-04-27 18:39 | 48.83616 | 1.95558 | 5735 ft | 268 kts | 64° |
| 2026-04-27 18:40 | 48.84365 | 1.98148 | 5553 ft | 263 kts | 65° |
| 2026-04-27 18:40 | 48.85067 | 2.00657 | 5404 ft | 259 kts | 65° |
| 2026-04-27 18:40 | 48.85774 | 2.03182 | 5106 ft | 255 kts | 65° |
| 2026-04-27 18:40 | 48.86471 | 2.05657 | 3983 ft | 259 kts | 65° |
| 2026-04-27 18:41 | 48.87163 | 2.08113 | 3762 ft | 248 kts | 65° |
| 2026-04-27 18:41 | 48.87851 | 2.10566 | 3508 ft | 252 kts | 66° |
| 2026-04-27 18:41 | 48.88536 | 2.13008 | 3190 ft | 249 kts | 65° |
| 2026-04-27 18:41 | 48.89168 | 2.15274 | 3014 ft | 216 kts | 65° |
| 2026-04-27 18:42 | 48.89713 | 2.17292 | 3019 ft | 201 kts | 66° |
| 2026-04-27 18:42 | 48.90076 | 2.18637 | 3018 ft | 205 kts | 66° |
| 2026-04-27 18:42 | 48.90808 | 2.21335 | 3024 ft | 211 kts | 66° |
| 2026-04-27 18:42 | 48.91368 | 2.23402 | 2804 ft | 213 kts | 66° |
| 2026-04-27 18:43 | 48.91933 | 2.25493 | 2527 ft | 213 kts | 66° |
| 2026-04-27 18:43 | 48.92489 | 2.27551 | 2241 ft | 202 kts | 65° |
| 2026-04-27 18:43 | 48.92965 | 2.29330 | 1975 ft | 166 kts | 65° |
| 2026-04-27 18:43 | 48.93394 | 2.30915 | 1765 ft | 159 kts | 64° |
| 2026-04-27 18:44 | 48.93780 | 2.32353 | 1559 ft | 135 kts | 64° |
| 2026-04-27 18:44 | 48.94111 | 2.33581 | 1384 ft | 119 kts | 64° |
| 2026-04-27 18:44 | 48.94419 | 2.34720 | 1236 ft | 115 kts | 63° |
| 2026-04-27 18:44 | 48.94719 | 2.35831 | 1095 ft | 113 kts | 64° |
| 2026-04-27 18:45 | 48.95016 | 2.36954 | 953 ft | 118 kts | 62° |
| 2026-04-27 18:45 | 48.95332 | 2.38099 | 806 ft | 116 kts | 64° |
| 2026-04-27 18:45 | 48.95640 | 2.39245 | 634 ft | 119 kts | 64° |
| 2026-04-27 18:45 | 48.95949 | 2.40402 | 493 ft | 116 kts | 65° |
| 2026-04-27 18:46 | 48.96261 | 2.41554 | 325 ft | 120 kts | 63° |
| 2026-04-27 18:46 | 48.96576 | 2.42726 | 196 ft | 116 kts | 64° |
| 2026-04-27 18:46 | 48.96840 | 2.43700 | 181 ft | 76 kts | 73° |
| 2026-04-27 18:46 | 48.96949 | 2.44170 | 192 ft | 30 kts | 90° |
| 2026-04-27 18:47 | 48.96892 | 2.44369 | 199 ft | 18 kts | 135° |
| 2026-04-27 18:47 | 48.96790 | 2.44421 | 197 ft | 13 kts | 167° |
| 2026-04-27 18:47 | 48.96722 | 2.44444 | 187 ft | 17 kts | 167° |
| 2026-04-27 18:47 | 48.96560 | 2.44530 | 178 ft | 19 kts | 166° |
| 2026-04-27 18:48 | 48.96475 | 2.44542 | 176 ft | 11 kts | 174° |
| 2026-04-27 18:48 | 48.96419 | 2.44549 | 173 ft | 1 kts | 179° |
| 2026-04-27 18:48 | 48.96392 | 2.44548 | 171 ft | 7 kts | 184° |
| 2026-04-27 18:48 | 48.96347 | 2.44567 | 168 ft | 5 kts | 112° |
| 2026-04-27 18:49 | 48.96339 | 2.44608 | 168 ft | 1 kts | 111° |
| 2026-04-27 18:49 | 48.96337 | 2.44622 | 168 ft | 2 kts | 102° |
| 2026-04-27 18:49 | 48.96334 | 2.44666 | 169 ft | 3 kts | 95° |
| 2026-04-27 18:49 | 48.96333 | 2.44677 | 169 ft | 0 kts | 95° |
| 2026-04-27 18:50 | 48.96474 | 2.46593 | 1630 ft | 193 kts | 61° |